Terminal Aerodrome Forecast
Issued by NWS Blacksburg, VA

Current Version | Previous Version | Graphics & Text | Print | Product List | Glossary On
Versions: 1 2 3 4 5 6 7 8 9 10 11 12 13 14 15 16 17 18 19 20 21 22 23 24 25 26 27 28 29 30 31
900
FTUS41 KRNK 270540
TAFBLF
TAF
KBLF 270540Z 2706/2806 17008G16KT P6SM SCT250 WS020/20035KT
     FM271800 20010G20KT 6SM -SHRA BKN050 BKN250
     FM272100 23010G22KT P6SM VCTS BKN040CB OVC100
     FM280000 27009KT P6SM SCT025 BKN070
     FM280300 25005KT P6SM BKN025=

USA.gov is the U.S. government's official web portal to all federal, state and local government web resources and services.